Time;durP1;ratioP1;P1;durP2;ratioP2;P2;SDS_P1;SDS_P2;PMS_P1;PMS_P2;Temp;Humidity;BMP_temperature;BMP_pressure;BME280_temperature;BME280_humidity;BME280_pressure;Samples;Min_cycle;Max_cycle;Signal;HPM_P1;HPM_P2
2022/10/21 00:00:51;;;;;;;14.60;4.57;;;17.60;90.70;;;;;;5038340;28;20356;-66
2022/10/21 00:03:20;;;;;;;10.63;3.00;;;17.80;90.00;;;;;;5043466;28;20468;-66
2022/10/21 00:05:46;;;;;;;13.60;3.60;;;18.00;89.30;;;;;;5041886;28;20021;-66
2022/10/21 00:08:13;;;;;;;14.57;3.33;;;18.00;89.00;;;;;;5037412;28;20033;-68
2022/10/21 00:10:38;;;;;;;16.33;3.03;;;18.10;88.70;;;;;;5038966;28;20104;-67
2022/10/21 00:13:04;;;;;;;15.45;3.55;;;18.10;88.80;;;;;;5041835;28;20117;-67
2022/10/21 00:15:30;;;;;;;12.40;4.22;;;18.20;88.20;;;;;;5039034;28;20052;-67
2022/10/21 00:17:55;;;;;;;14.65;3.35;;;18.10;88.80;;;;;;5044528;28;20440;-67
2022/10/21 00:20:21;;;;;;;19.95;4.15;;;18.00;89.60;;;;;;5038339;28;20032;-67
2022/10/21 00:22:50;;;;;;;10.63;3.13;;;17.80;91.80;;;;;;5038513;28;20029;-67
2022/10/21 00:25:15;;;;;;;9.68;2.97;;;17.30;93.50;;;;;;5036066;28;20025;-67
2022/10/21 00:27:41;;;;;;;11.57;3.95;;;17.00;94.60;;;;;;5051181;28;20319;-67
2022/10/21 00:30:07;;;;;;;14.43;3.72;;;16.80;95.40;;;;;;5038199;28;20025;-67
2022/10/21 00:32:33;;;;;;;15.32;4.20;;;16.70;96.10;;;;;;5040262;28;20038;-66
2022/10/21 00:34:59;;;;;;;12.85;3.45;;;16.70;96.20;;;;;;5037013;28;20030;-67
2022/10/21 00:37:27;;;;;;;10.75;3.10;;;16.70;96.10;;;;;;5045822;28;20048;-67
2022/10/21 00:39:53;;;;;;;12.23;3.25;;;17.00;94.90;;;;;;5041651;28;20036;-67
2022/10/21 00:42:21;;;;;;;14.70;4.13;;;17.10;96.30;;;;;;5041966;28;20029;-69
2022/10/21 00:45:05;;;;;;;10.82;3.30;;;16.40;98.00;;;;;;5036167;28;20029;-69
2022/10/21 00:47:50;;;;;;;10.05;3.63;;;15.60;97.20;;;;;;5035491;28;20044;-70
2022/10/21 00:50:30;;;;;;;14.10;3.25;;;15.20;96.80;;;;;;5028853;28;20022;-69
2022/10/21 00:52:57;;;;;;;13.15;4.18;;;15.20;97.50;;;;;;5040376;28;20124;-69
2022/10/21 00:55:25;;;;;;;11.13;3.40;;;15.00;94.70;;;;;;5036972;28;20426;-69
2022/10/21 00:57:52;;;;;;;19.85;3.88;;;14.90;94.10;;;;;;5044039;28;20025;-69
2022/10/21 01:00:18;;;;;;;12.85;3.83;;;14.80;93.10;;;;;;5037971;28;20424;-69
2022/10/21 01:02:44;;;;;;;13.07;4.35;;;14.70;91.60;;;;;;5037514;28;20132;-69
2022/10/21 01:05:10;;;;;;;18.27;4.43;;;14.70;93.80;;;;;;5038440;28;20030;-69
2022/10/21 01:07:36;;;;;;;15.63;4.72;;;14.80;93.20;;;;;;5047459;28;20030;-68
2022/10/21 01:10:03;;;;;;;13.43;4.70;;;14.80;93.60;;;;;;5036908;28;20051;-68
2022/10/21 01:12:34;;;;;;;21.92;4.68;;;14.80;93.00;;;;;;5041528;28;20025;-68
2022/10/21 01:15:05;;;;;;;18.98;4.40;;;14.80;93.60;;;;;;5035045;28;20034;-69
2022/10/21 01:17:54;;;;;;;18.85;4.68;;;14.90;95.50;;;;;;5045926;28;20025;-69
2022/10/21 01:20:25;;;;;;;16.45;4.10;;;15.10;96.60;;;;;;5049513;28;20075;-68
2022/10/21 01:23:12;;;;;;;20.05;4.63;;;15.30;98.00;;;;;;5036493;28;20021;-68
2022/10/21 01:25:54;;;;;;;17.95;4.22;;;15.40;98.00;;;;;;5039529;28;20032;-69
2022/10/21 01:28:26;;;;;;;15.52;3.90;;;15.20;97.40;;;;;;5023698;28;20029;-68
2022/10/21 01:30:54;;;;;;;22.50;4.93;;;15.30;98.00;;;;;;5026938;28;20049;-68
2022/10/21 01:33:22;;;;;;;14.75;3.95;;;15.50;98.00;;;;;;5035278;28;20033;-68
2022/10/21 01:36:25;;;;;;;21.13;4.35;;;15.60;98.00;;;;;;5045005;28;20475;-69
2022/10/21 01:38:53;;;;;;;14.63;3.30;;;15.70;98.00;;;;;;5045796;28;20029;-68
2022/10/21 01:41:45;;;;;;;13.80;3.95;;;15.60;98.00;;;;;;5034361;28;20121;-68
2022/10/21 01:44:40;;;;;;;17.08;3.88;;;15.80;98.00;;;;;;5034731;28;20045;-68
2022/10/21 01:47:19;;;;;;;18.15;3.67;;;15.90;98.00;;;;;;5031397;28;20044;-68
2022/10/21 01:49:54;;;;;;;11.27;3.45;;;16.10;98.00;;;;;;5043115;28;20032;-68
2022/10/21 01:52:21;;;;;;;13.20;2.63;;;16.10;98.00;;;;;;5035780;28;20056;-68
2022/10/21 01:54:56;;;;;;;13.73;3.20;;;16.20;98.00;;;;;;5036201;28;20120;-68
2022/10/21 01:57:26;;;;;;;13.65;4.10;;;16.20;98.00;;;;;;5056638;28;20060;-68
2022/10/21 01:59:54;;;;;;;12.85;3.47;;;16.00;98.00;;;;;;5054831;28;20033;-68
2022/10/21 02:02:22;;;;;;;13.57;3.30;;;16.00;98.00;;;;;;5054175;28;20021;-68
2022/10/21 02:04:50;;;;;;;21.45;3.72;;;16.10;98.00;;;;;;5035830;28;20021;-68
2022/10/21 02:07:16;;;;;;;16.17;3.53;;;16.20;98.00;;;;;;5038907;28;20025;-68
2022/10/21 02:09:42;;;;;;;14.10;4.25;;;16.20;98.00;;;;;;5053048;28;20025;-68
2022/10/21 02:12:09;;;;;;;12.65;3.50;;;16.10;98.00;;;;;;5041477;28;20029;-68
2022/10/21 02:14:49;;;;;;;14.05;3.83;;;16.00;98.00;;;;;;5037068;28;20048;-68
2022/10/21 02:17:18;;;;;;;15.45;3.45;;;15.70;98.00;;;;;;5036105;28;20040;-68
2022/10/21 02:19:45;;;;;;;15.30;3.65;;;15.60;98.00;;;;;;5034707;28;20104;-67
2022/10/21 02:22:16;;;;;;;12.77;3.65;;;15.60;98.00;;;;;;5021844;28;20030;-68
2022/10/21 02:24:51;;;;;;;18.27;4.07;;;15.60;98.00;;;;;;5036877;28;20025;-68
2022/10/21 02:27:21;;;;;;;16.77;3.90;;;15.70;98.00;;;;;;5035465;28;20124;-68
2022/10/21 02:29:48;;;;;;;13.35;3.85;;;15.80;98.00;;;;;;5038114;28;20467;-68
2022/10/21 02:32:46;;;;;;;13.40;3.72;;;15.70;98.00;;;;;;5041225;28;20038;-68
2022/10/21 02:35:30;;;;;;;14.90;3.28;;;15.70;98.00;;;;;;5040640;28;20025;-68
2022/10/21 02:38:12;;;;;;;13.15;3.58;;;15.60;98.00;;;;;;5029562;28;20053;-68
2022/10/21 02:41:09;;;;;;;15.43;3.40;;;15.60;98.00;;;;;;5034562;28;20048;-68
2022/10/21 02:43:44;;;;;;;15.02;3.85;;;15.70;98.00;;;;;;5033722;28;20037;-68
2022/10/21 02:46:12;;;;;;;10.98;2.97;;;15.90;98.00;;;;;;5039170;28;20021;-68
2022/10/21 02:48:41;;;;;;;19.48;3.85;;;16.00;98.00;;;;;;5042477;28;20112;-68
2022/10/21 02:51:08;;;;;;;13.60;3.90;;;16.10;98.00;;;;;;5034644;28;20033;-67
2022/10/21 02:53:37;;;;;;;12.23;4.25;;;16.10;98.00;;;;;;5036495;28;20121;-67
2022/10/21 02:56:03;;;;;;;14.40;3.63;;;16.20;98.00;;;;;;5034852;28;20044;-67
2022/10/21 02:58:29;;;;;;;8.45;3.45;;;16.10;98.00;;;;;;5036992;28;20044;-67
2022/10/21 03:00:57;;;;;;;15.98;3.40;;;16.00;98.00;;;;;;5035660;28;20025;-67
2022/10/21 03:03:23;;;;;;;9.95;3.15;;;16.00;98.00;;;;;;5034705;28;20513;-69
2022/10/21 03:05:49;;;;;;;17.52;3.78;;;15.80;98.00;;;;;;5035218;28;20113;-69
2022/10/21 03:08:14;;;;;;;10.93;4.13;;;15.60;97.80;;;;;;5044328;28;20034;-67
2022/10/21 03:10:40;;;;;;;17.60;4.03;;;15.40;97.50;;;;;;5035391;28;20053;-68
2022/10/21 03:13:06;;;;;;;12.45;3.53;;;15.30;98.00;;;;;;5031137;28;20044;-68
2022/10/21 03:15:31;;;;;;;20.08;4.30;;;15.30;97.70;;;;;;5037194;28;20100;-68
2022/10/21 03:17:57;;;;;;;18.67;4.13;;;15.30;98.00;;;;;;5054909;28;20036;-68
2022/10/21 03:20:23;;;;;;;19.15;4.65;;;15.30;97.10;;;;;;5036147;28;20024;-68
2022/10/21 03:22:48;;;;;;;15.80;4.57;;;15.20;98.00;;;;;;5050457;28;20018;-68
2022/10/21 03:25:14;;;;;;;14.63;4.40;;;15.30;98.00;;;;;;5016707;28;20330;-68
2022/10/21 03:27:40;;;;;;;17.15;3.65;;;15.20;97.40;;;;;;5033996;28;20017;-68
2022/10/21 03:30:07;;;;;;;17.95;4.00;;;15.10;98.00;;;;;;5028514;28;20021;-66
2022/10/21 03:32:34;;;;;;;12.30;3.78;;;15.20;98.00;;;;;;5047622;28;20167;-68
2022/10/21 03:35:07;;;;;;;14.75;4.45;;;15.10;97.30;;;;;;5043071;28;20029;-67
2022/10/21 03:37:33;;;;;;;20.80;4.63;;;15.10;98.00;;;;;;5036244;28;20032;-68
2022/10/21 03:39:58;;;;;;;14.20;4.13;;;15.10;96.70;;;;;;5044289;28;20033;-68
2022/10/21 03:42:24;;;;;;;18.08;5.22;;;15.00;94.90;;;;;;5050482;28;20036;-69
2022/10/21 03:44:49;;;;;;;15.15;4.72;;;15.00;95.90;;;;;;5043279;28;20021;-68
2022/10/21 03:47:15;;;;;;;18.13;4.63;;;14.90;92.90;;;;;;5037284;28;20057;-69
2022/10/21 03:49:41;;;;;;;20.23;3.58;;;14.70;90.90;;;;;;5038138;28;20159;-68
2022/10/21 03:52:06;;;;;;;16.30;4.53;;;14.60;93.70;;;;;;5038711;28;20544;-68
2022/10/21 03:54:32;;;;;;;17.27;3.90;;;14.70;93.10;;;;;;5049416;28;20096;-66
2022/10/21 03:56:58;;;;;;;19.63;5.15;;;14.60;92.40;;;;;;5039557;28;20030;-67
2022/10/21 03:59:23;;;;;;;23.23;4.72;;;14.60;90.50;;;;;;5038105;28;20048;-68
2022/10/21 04:01:49;;;;;;;17.73;4.82;;;14.60;91.30;;;;;;5034010;28;20029;-66
2022/10/21 04:04:15;;;;;;;17.95;4.00;;;14.50;90.30;;;;;;5035694;28;20022;-67
2022/10/21 04:06:41;;;;;;;18.25;4.30;;;14.50;89.60;;;;;;5033191;28;20128;-66
2022/10/21 04:09:07;;;;;;;17.80;4.40;;;14.50;93.00;;;;;;5023210;28;20026;-68
2022/10/21 04:11:34;;;;;;;17.95;4.00;;;14.70;96.60;;;;;;5029270;28;20033;-67
2022/10/21 04:14:01;;;;;;;12.55;3.83;;;14.90;98.00;;;;;;5051892;28;20086;-65
2022/10/21 04:16:26;;;;;;;12.93;3.50;;;15.20;98.00;;;;;;5047914;28;20033;-69
2022/10/21 04:18:52;;;;;;;16.67;4.70;;;15.60;98.00;;;;;;5040850;28;20026;-68
2022/10/21 04:21:18;;;;;;;15.68;3.92;;;15.60;98.00;;;;;;5036491;28;20026;-68
2022/10/21 04:23:43;;;;;;;14.20;3.95;;;15.70;98.00;;;;;;5050710;28;20083;-68
2022/10/21 04:26:09;;;;;;;24.63;4.88;;;15.90;98.00;;;;;;5047887;28;20017;-68
2022/10/21 04:28:35;;;;;;;15.38;4.03;;;16.20;98.00;;;;;;5036943;28;20033;-68
2022/10/21 04:31:01;;;;;;;16.13;3.85;;;16.40;98.00;;;;;;5046128;28;20378;-68
2022/10/21 04:33:27;;;;;;;14.38;3.38;;;16.30;98.00;;;;;;5053550;28;20067;-67
2022/10/21 04:35:54;;;;;;;19.92;4.28;;;16.20;98.00;;;;;;5033981;28;20041;-68
2022/10/21 04:38:20;;;;;;;16.65;4.60;;;16.20;98.00;;;;;;5038294;28;20377;-67
2022/10/21 04:40:46;;;;;;;18.17;3.75;;;16.20;98.00;;;;;;5038763;28;20467;-68
2022/10/21 04:43:12;;;;;;;18.52;3.70;;;16.20;98.00;;;;;;5040396;28;20105;-67
2022/10/21 04:45:39;;;;;;;17.90;3.70;;;16.30;97.90;;;;;;5034420;28;20100;-67
2022/10/21 04:48:05;;;;;;;14.23;4.40;;;16.30;98.00;;;;;;5049184;28;20075;-68
2022/10/21 04:50:33;;;;;;;15.30;3.95;;;16.10;98.00;;;;;;5043749;28;20022;-68
2022/10/21 04:52:59;;;;;;;16.30;4.03;;;16.00;98.00;;;;;;5049677;28;20041;-68
2022/10/21 04:55:25;;;;;;;15.18;4.72;;;15.70;98.00;;;;;;5043818;28;20453;-68
2022/10/21 04:57:50;;;;;;;13.00;3.85;;;15.60;98.00;;;;;;5037806;28;20410;-68
2022/10/21 05:00:16;;;;;;;12.88;3.60;;;15.40;98.00;;;;;;5042363;28;20032;-68
2022/10/21 05:02:42;;;;;;;17.52;4.60;;;15.30;98.00;;;;;;5043892;28;20327;-68
2022/10/21 05:05:08;;;;;;;19.08;4.72;;;15.20;97.00;;;;;;5024845;28;20057;-68
2022/10/21 05:07:33;;;;;;;13.00;4.25;;;15.00;97.50;;;;;;5037842;28;20025;-68
2022/10/21 05:09:59;;;;;;;14.43;4.38;;;14.90;96.70;;;;;;5036432;28;20068;-68
2022/10/21 05:12:25;;;;;;;15.00;4.65;;;14.80;95.10;;;;;;5044784;28;20038;-69
2022/10/21 05:14:51;;;;;;;18.98;4.82;;;14.70;95.80;;;;;;5037534;28;20100;-69
2022/10/21 05:17:16;;;;;;;17.88;4.75;;;14.70;94.50;;;;;;5040234;28;20052;-68
2022/10/21 05:19:42;;;;;;;16.33;4.07;;;14.60;93.30;;;;;;5057434;28;20025;-70
2022/10/21 05:22:07;;;;;;;14.23;5.05;;;14.50;92.90;;;;;;5055636;28;20033;-68
2022/10/21 05:24:33;;;;;;;15.27;5.35;;;14.40;92.50;;;;;;5057354;28;20123;-68
2022/10/21 05:26:59;;;;;;;14.23;4.35;;;14.30;91.00;;;;;;5039665;28;20035;-68
2022/10/21 05:29:24;;;;;;;19.67;5.38;;;14.30;89.90;;;;;;5043412;28;20091;-69
2022/10/21 05:31:50;;;;;;;19.02;4.82;;;14.20;89.00;;;;;;5050103;28;20038;-68
2022/10/21 05:34:16;;;;;;;17.67;5.85;;;14.20;88.00;;;;;;5057110;28;20021;-68
2022/10/21 05:36:41;;;;;;;11.40;4.43;;;14.10;86.50;;;;;;5040448;28;20048;-68
2022/10/21 05:39:10;;;;;;;13.40;4.80;;;14.10;84.70;;;;;;5025911;28;20024;-68
2022/10/21 05:41:36;;;;;;;17.08;4.70;;;14.10;85.00;;;;;;5040170;28;20483;-68
2022/10/21 05:44:02;;;;;;;20.00;5.43;;;14.00;84.60;;;;;;5053992;28;20108;-68
2022/10/21 05:46:28;;;;;;;15.00;5.78;;;13.90;82.90;;;;;;5048653;28;20098;-67
2022/10/21 05:48:53;;;;;;;15.18;4.40;;;13.90;81.00;;;;;;5038689;28;20406;-67
2022/10/21 05:51:25;;;;;;;15.02;4.95;;;13.90;79.90;;;;;;5049998;28;20061;-69
2022/10/21 05:53:54;;;;;;;13.88;4.55;;;13.90;79.80;;;;;;5048459;28;20032;-69
2022/10/21 05:56:20;;;;;;;16.13;5.13;;;13.90;78.00;;;;;;5049483;28;20045;-67
2022/10/21 05:58:46;;;;;;;16.42;5.53;;;13.80;78.50;;;;;;5052263;28;20328;-69
2022/10/21 06:01:12;;;;;;;18.92;6.25;;;13.80;76.80;;;;;;5047235;28;20066;-70
2022/10/21 06:03:38;;;;;;;16.10;5.53;;;13.80;76.30;;;;;;5046732;28;20017;-69
2022/10/21 06:06:06;;;;;;;16.20;5.30;;;13.80;75.20;;;;;;5045631;28;20024;-68
2022/10/21 06:08:34;;;;;;;15.25;6.55;;;13.80;74.30;;;;;;5033386;28;20386;-69
2022/10/21 06:11:11;;;;;;;31.77;15.70;;;13.70;74.00;;;;;;5032775;28;20041;-70
2022/10/21 06:13:38;;;;;;;21.25;7.93;;;13.80;72.60;;;;;;5036384;28;20060;-69
2022/10/21 06:16:04;;;;;;;17.27;5.28;;;13.80;73.30;;;;;;5052396;28;20043;-69
2022/10/21 06:18:30;;;;;;;14.18;4.53;;;13.80;73.00;;;;;;5042773;28;20029;-69
2022/10/21 06:20:56;;;;;;;13.38;4.20;;;13.80;73.40;;;;;;5047364;28;20032;-69
2022/10/21 06:23:22;;;;;;;14.43;4.75;;;13.80;73.50;;;;;;5054275;28;20025;-69
2022/10/21 06:26:05;;;;;;;14.73;4.75;;;13.80;73.70;;;;;;5032608;28;20030;-70
2022/10/21 06:28:33;;;;;;;16.00;6.22;;;13.80;73.80;;;;;;5021360;28;20039;-69
2022/10/21 06:30:59;;;;;;;19.40;5.15;;;13.80;73.30;;;;;;5043489;28;20029;-69
2022/10/21 06:33:25;;;;;;;16.75;5.30;;;13.80;72.80;;;;;;5033266;28;20124;-69
2022/10/21 06:35:50;;;;;;;21.90;6.13;;;13.80;72.30;;;;;;5034682;28;20032;-69
2022/10/21 06:38:17;;;;;;;28.23;5.82;;;13.80;71.90;;;;;;5045996;28;20041;-69
2022/10/21 06:40:43;;;;;;;13.27;4.63;;;13.80;71.50;;;;;;5036883;28;20071;-69
2022/10/21 06:43:09;;;;;;;15.23;4.90;;;13.80;71.20;;;;;;5034295;28;20037;-69
2022/10/21 06:45:35;;;;;;;14.75;5.20;;;13.80;71.10;;;;;;5035058;28;20036;-69
2022/10/21 06:48:01;;;;;;;18.23;5.40;;;13.80;71.60;;;;;;5046810;28;20033;-69
2022/10/21 06:50:27;;;;;;;11.07;4.30;;;13.80;71.00;;;;;;5042484;28;20113;-69
2022/10/21 06:52:53;;;;;;;10.63;4.10;;;13.80;70.90;;;;;;5040953;28;20036;-70
2022/10/21 06:55:19;;;;;;;11.55;4.70;;;13.80;70.00;;;;;;5027685;28;20574;-68
2022/10/21 06:57:44;;;;;;;16.25;7.20;;;13.80;70.80;;;;;;5016295;28;20665;-69
2022/10/21 07:00:11;;;;;;;17.30;9.63;;;13.80;70.50;;;;;;5024678;28;20627;-69
2022/10/21 07:02:37;;;;;;;15.95;6.70;;;13.90;70.30;;;;;;5054365;22;20061;-69
2022/10/21 07:05:03;;;;;;;21.02;7.03;;;13.90;71.20;;;;;;5037489;28;20033;-68
2022/10/21 07:07:29;;;;;;;13.07;5.38;;;13.90;70.90;;;;;;5033544;28;20131;-69
2022/10/21 07:09:56;;;;;;;13.35;4.63;;;14.00;70.20;;;;;;5039466;28;20033;-71
2022/10/21 07:12:23;;;;;;;13.52;4.40;;;14.00;70.50;;;;;;5048726;28;20071;-69
2022/10/21 07:14:49;;;;;;;11.20;4.70;;;14.00;71.20;;;;;;5044868;28;20025;-69
2022/10/21 07:17:15;;;;;;;12.27;4.50;;;14.00;71.90;;;;;;5044853;28;20045;-68
2022/10/21 07:19:40;;;;;;;13.38;3.55;;;14.10;71.30;;;;;;5039712;28;20033;-68
2022/10/21 07:22:06;;;;;;;15.32;3.72;;;14.10;72.30;;;;;;5038948;28;20036;-68
2022/10/21 07:24:32;;;;;;;9.00;3.70;;;14.00;72.80;;;;;;5022207;28;20519;-71
2022/10/21 07:26:58;;;;;;;9.15;3.47;;;14.00;72.80;;;;;;5040590;28;20021;-69
2022/10/21 07:29:23;;;;;;;12.63;3.65;;;14.00;73.30;;;;;;5058720;28;20029;-69
2022/10/21 07:31:49;;;;;;;13.07;2.90;;;14.00;73.80;;;;;;5044674;28;20044;-69
2022/10/21 07:34:15;;;;;;;11.75;3.85;;;14.00;74.50;;;;;;5075375;28;20039;-69
2022/10/21 07:36:46;;;;;;;10.60;2.67;;;14.00;74.60;;;;;;5072614;28;20035;-69
2022/10/21 07:39:15;;;;;;;8.35;2.60;;;13.90;75.10;;;;;;5071640;28;20130;-69
2022/10/21 07:41:52;;;;;;;9.10;2.22;;;13.90;75.50;;;;;;5053250;28;20024;-69
2022/10/21 07:44:19;;;;;;;6.25;2.08;;;13.90;77.40;;;;;;5052816;28;20035;-70
2022/10/21 07:46:47;;;;;;;8.52;2.70;;;13.90;79.90;;;;;;5068868;28;20025;-69
2022/10/21 07:49:15;;;;;;;8.88;2.70;;;13.90;81.70;;;;;;5059070;28;20024;-70
2022/10/21 07:51:42;;;;;;;5.85;2.00;;;13.90;83.30;;;;;;5059059;28;20419;-69
2022/10/21 07:54:08;;;;;;;11.35;2.92;;;13.90;84.00;;;;;;5059137;28;20028;-71
2022/10/21 07:56:37;;;;;;;11.13;2.97;;;13.90;83.90;;;;;;5039116;28;20033;-68
2022/10/21 07:59:03;;;;;;;10.75;3.78;;;13.90;84.70;;;;;;5059013;28;20021;-69
2022/10/21 08:01:30;;;;;;;10.20;3.28;;;13.90;85.20;;;;;;5058664;28;20091;-69
2022/10/21 08:03:57;;;;;;;11.40;3.60;;;13.90;85.10;;;;;;5059036;28;20017;-69
2022/10/21 08:06:23;;;;;;;12.65;3.95;;;13.90;85.10;;;;;;5058202;28;20021;-69
2022/10/21 08:08:49;;;;;;;14.13;3.85;;;13.90;84.00;;;;;;5058712;28;20036;-69
2022/10/21 08:11:26;;;;;;;13.40;4.85;;;13.90;83.30;;;;;;5040031;28;20095;-70
2022/10/21 08:13:52;;;;;;;16.30;4.78;;;13.90;84.90;;;;;;5058802;28;20028;-71
2022/10/21 08:16:18;;;;;;;11.02;5.03;;;13.90;85.10;;;;;;5058002;28;20021;-69
2022/10/21 08:18:43;;;;;;;13.38;4.88;;;14.00;84.50;;;;;;5057914;28;20295;-69
2022/10/21 08:21:09;;;;;;;13.95;5.60;;;14.00;85.10;;;;;;5054682;28;20899;-69
2022/10/21 08:23:36;;;;;;;15.70;4.63;;;14.00;85.30;;;;;;5060611;28;20469;-69
2022/10/21 08:26:02;;;;;;;13.63;4.63;;;14.00;85.40;;;;;;5074466;28;20108;-69
2022/10/21 08:28:30;;;;;;;15.55;4.95;;;14.10;85.40;;;;;;5064478;28;20032;-69
2022/10/21 08:31:10;;;;;;;13.20;4.85;;;14.10;85.70;;;;;;5066869;28;20025;-69
2022/10/21 08:33:36;;;;;;;11.55;4.68;;;14.10;86.80;;;;;;5058279;28;20028;-69
2022/10/21 08:36:07;;;;;;;15.27;4.07;;;14.20;87.40;;;;;;5073980;28;20025;-69
2022/10/21 08:38:34;;;;;;;15.55;4.93;;;14.20;87.70;;;;;;5039627;28;20516;-69
2022/10/21 08:41:00;;;;;;;12.38;4.25;;;14.20;87.60;;;;;;5039237;28;20016;-69
2022/10/21 08:43:28;;;;;;;10.00;3.70;;;14.20;88.40;;;;;;5058122;28;20017;-69
2022/10/21 08:45:56;;;;;;;10.10;3.80;;;14.30;88.40;;;;;;5058152;28;20057;-68
2022/10/21 08:48:32;;;;;;;13.07;4.65;;;14.30;88.90;;;;;;5057351;28;20021;-68
2022/10/21 08:50:59;;;;;;;9.73;3.20;;;14.40;89.00;;;;;;5057429;28;20029;-68
2022/10/21 08:53:35;;;;;;;11.52;3.88;;;14.40;90.60;;;;;;5058010;28;20021;-68
2022/10/21 08:56:05;;;;;;;9.10;3.72;;;14.50;90.00;;;;;;5038772;28;20416;-68
2022/10/21 08:58:31;;;;;;;12.07;4.22;;;14.60;90.80;;;;;;5058261;28;20356;-69
2022/10/21 09:01:03;;;;;;;9.95;3.00;;;14.70;92.00;;;;;;5056921;28;20039;-68
2022/10/21 09:04:03;;;;;;;11.30;3.80;;;14.80;94.30;;;;;;5056659;28;20081;-68
2022/10/21 09:06:47;;;;;;;12.10;4.13;;;14.90;94.00;;;;;;5057676;28;20017;-68
2022/10/21 09:09:25;;;;;;;13.60;4.15;;;14.80;92.00;;;;;;5057867;28;20482;-68
2022/10/21 09:12:09;;;;;;;15.13;3.85;;;14.70;90.20;;;;;;5056505;28;20078;-68
2022/10/21 09:14:38;;;;;;;;;;;14.60;90.20;;;;;;5057208;28;20124;-69
2022/10/21 09:17:41;;;;;;;17.55;3.65;;;14.60;91.30;;;;;;5057554;28;19909;-69
2022/10/21 09:20:15;;;;;;;10.65;3.60;;;14.70;91.60;;;;;;5057452;28;20029;-69
2022/10/21 09:23:03;;;;;;;12.00;4.78;;;14.80;91.30;;;;;;5056703;28;20356;-68
2022/10/21 09:25:54;;;;;;;11.85;3.45;;;14.90;90.30;;;;;;5055721;28;20108;-69
2022/10/21 09:28:20;;;;;;;11.48;3.78;;;14.90;93.30;;;;;;5057009;28;20033;-69
2022/10/21 09:30:46;;;;;;;14.00;4.60;;;15.00;92.30;;;;;;5056327;28;20033;-69
2022/10/21 09:33:25;;;;;;;15.73;4.25;;;14.90;92.30;;;;;;5073607;28;20074;-69
2022/10/21 09:36:14;;;;;;;10.00;4.13;;;14.80;92.00;;;;;;5074768;28;20105;-69
2022/10/21 09:39:18;;;;;;;11.55;3.75;;;14.80;91.30;;;;;;5061786;28;20033;-69
2022/10/21 09:41:48;;;;;;;12.38;2.95;;;14.90;91.00;;;;;;5070173;28;20028;-69
2022/10/21 09:44:17;;;;;;;11.73;2.75;;;15.00;95.90;;;;;;5057156;28;20028;-68
2022/10/21 09:46:51;;;;;;;10.35;2.40;;;15.00;95.60;;;;;;5073176;28;20028;-68
2022/10/21 09:49:35;;;;;;;14.35;2.78;;;15.00;98.00;;;;;;5056813;28;20036;-68
2022/10/21 09:52:05;;;;;;;12.10;2.30;;;15.00;97.10;;;;;;5059310;28;20433;-68
2022/10/21 09:54:38;;;;;;;9.93;2.85;;;15.00;98.00;;;;;;5055748;28;20112;-69
2022/10/21 09:57:31;;;;;;;5.70;2.10;;;15.10;98.00;;;;;;5018032;28;20456;-70
2022/10/21 10:00:01;;;;;;;6.63;2.47;;;15.10;98.00;;;;;;5041381;28;20033;-69
2022/10/21 10:02:32;;;;;;;7.40;2.13;;;15.10;98.00;;;;;;5076541;28;20395;-69
2022/10/21 10:04:58;;;;;;;5.68;1.85;;;15.10;97.70;;;;;;5072956;28;20107;-70
2022/10/21 10:07:34;;;;;;;5.22;1.70;;;15.10;98.00;;;;;;5076562;28;20095;-69
2022/10/21 10:10:07;;;;;;;6.82;1.80;;;15.20;98.00;;;;;;5072765;28;20021;-69
2022/10/21 10:12:33;;;;;;;7.63;1.80;;;15.20;98.00;;;;;;5076422;28;20056;-69
2022/10/21 10:15:23;;;;;;;5.50;1.48;;;15.40;98.00;;;;;;5057596;28;20056;-69
2022/10/21 10:17:48;;;;;;;5.38;1.35;;;15.50;98.00;;;;;;5069592;28;20032;-68
2022/10/21 10:20:17;;;;;;;5.07;1.60;;;15.70;98.00;;;;;;5058389;28;20107;-68
2022/10/21 10:22:44;;;;;;;4.05;1.10;;;15.90;98.00;;;;;;5070901;28;20025;-68
2022/10/21 10:25:23;;;;;;;6.25;1.48;;;16.10;98.00;;;;;;5055299;28;20017;-68
2022/10/21 10:27:58;;;;;;;5.65;1.30;;;16.20;98.00;;;;;;5057752;28;20029;-68
2022/10/21 10:30:48;;;;;;;6.53;1.67;;;16.30;98.00;;;;;;5076231;28;20325;-69
2022/10/21 10:33:22;;;;;;;4.70;1.40;;;16.40;98.00;;;;;;5063045;28;20067;-68
2022/10/21 10:35:57;;;;;;;4.78;1.17;;;16.40;98.00;;;;;;5076272;28;20401;-68
2022/10/21 10:38:31;;;;;;;2.40;0.93;;;16.40;97.90;;;;;;5073690;28;20036;-68
2022/10/21 10:41:15;;;;;;;2.63;1.10;;;16.40;97.90;;;;;;5057081;28;20059;-68
2022/10/21 10:43:54;;;;;;;2.53;0.88;;;16.50;97.20;;;;;;5074145;28;20029;-68
2022/10/21 10:46:34;;;;;;;3.03;1.00;;;16.50;98.00;;;;;;5075751;28;20435;-67
2022/10/21 10:49:11;;;;;;;3.72;1.02;;;16.50;97.10;;;;;;5059069;28;20078;-68
2022/10/21 10:51:39;;;;;;;4.85;1.25;;;16.30;97.80;;;;;;5055003;28;20120;-68
2022/10/21 10:54:27;;;;;;;3.05;0.90;;;16.20;98.00;;;;;;5066248;28;20040;-68
2022/10/21 10:57:08;;;;;;;5.82;1.83;;;16.20;98.00;;;;;;5034779;28;20079;-68
2022/10/21 10:59:45;;;;;;;3.63;1.10;;;16.20;98.00;;;;;;5050534;28;20417;-68
2022/10/21 11:02:11;;;;;;;3.25;1.20;;;16.20;98.00;;;;;;5055761;28;20048;-68
2022/10/21 11:04:46;;;;;;;2.58;0.98;;;16.20;98.00;;;;;;5066542;28;20021;-68
2022/10/21 11:07:30;;;;;;;4.75;1.20;;;16.30;98.00;;;;;;5055785;28;20379;-68
2022/10/21 11:10:03;;;;;;;4.63;0.93;;;16.30;97.90;;;;;;5070207;28;20425;-68
2022/10/21 11:12:29;;;;;;;6.32;1.00;;;16.40;97.50;;;;;;5075973;28;20028;-68
2022/10/21 11:14:59;;;;;;;3.40;1.15;;;16.60;96.50;;;;;;5065374;28;20029;-69
2022/10/21 11:17:44;;;;;;;2.88;1.02;;;16.70;97.20;;;;;;5055688;28;20474;-68
2022/10/21 11:20:29;;;;;;;6.63;1.88;;;16.50;97.70;;;;;;5054701;28;20617;-69
2022/10/21 11:23:20;;;;;;;3.63;1.20;;;16.10;98.00;;;;;;5055251;28;20325;-68
2022/10/21 11:25:55;;;;;;;3.80;1.20;;;15.90;98.00;;;;;;5044189;28;20029;-68
2022/10/21 11:28:39;;;;;;;3.75;1.40;;;15.70;98.00;;;;;;5054054;28;20391;-68
2022/10/21 11:31:41;;;;;;;6.22;1.38;;;15.60;98.00;;;;;;5035672;28;20061;-68
2022/10/21 11:34:19;;;;;;;4.53;1.30;;;15.60;98.00;;;;;;4992342;28;20033;-69
2022/10/21 11:37:06;;;;;;;7.72;1.60;;;15.40;98.00;;;;;;5053123;28;20029;-69
2022/10/21 11:39:57;;;;;;;4.43;1.10;;;15.20;98.00;;;;;;5066693;28;20111;-69
2022/10/21 11:42:39;;;;;;;4.13;1.58;;;15.10;98.00;;;;;;5075487;28;20026;-69
2022/10/21 11:45:11;;;;;;;2.08;0.95;;;15.00;98.00;;;;;;5071496;28;20032;-69
2022/10/21 11:48:01;;;;;;;3.58;1.30;;;15.10;98.00;;;;;;5057769;28;20384;-68
2022/10/21 11:50:54;;;;;;;2.15;0.90;;;15.20;98.00;;;;;;5050118;28;20083;-68
2022/10/21 11:53:52;;;;;;;3.75;1.08;;;15.20;98.00;;;;;;5041579;28;20021;-68
2022/10/21 11:56:38;;;;;;;4.65;1.23;;;15.20;98.00;;;;;;5032992;28;20042;-68
2022/10/21 11:59:31;;;;;;;4.53;1.15;;;15.30;98.00;;;;;;5039061;28;20295;-68
2022/10/21 12:02:13;;;;;;;2.90;1.02;;;15.40;98.00;;;;;;5056053;28;20056;-68
2022/10/21 12:05:03;;;;;;;5.38;1.00;;;15.60;98.00;;;;;;5052085;28;20041;-68
2022/10/21 12:07:32;;;;;;;1.50;0.60;;;15.80;98.00;;;;;;5078898;28;20020;-68
2022/10/21 12:10:05;;;;;;;3.33;0.75;;;16.00;97.30;;;;;;5057826;28;20024;-68
2022/10/21 12:12:45;;;;;;;3.80;0.77;;;16.00;97.50;;;;;;5078808;28;20024;-68
2022/10/21 12:15:26;;;;;;;1.45;0.52;;;16.10;97.50;;;;;;5076850;28;20102;-68
2022/10/21 12:17:53;;;;;;;2.47;0.60;;;16.40;96.20;;;;;;5078853;28;20108;-68
2022/10/21 12:20:25;;;;;;;3.90;0.70;;;16.50;96.00;;;;;;5076439;28;20028;-68
2022/10/21 12:23:03;;;;;;;2.53;1.27;;;16.60;95.10;;;;;;5075904;28;20440;-68
2022/10/21 12:26:11;;;;;;;2.58;0.70;;;16.60;96.30;;;;;;5064710;28;20021;-68
2022/10/21 12:29:14;;;;;;;2.33;0.63;;;16.40;95.90;;;;;;5034572;28;20065;-68
2022/10/21 12:31:50;;;;;;;2.47;0.60;;;16.60;95.40;;;;;;5039202;28;20044;-68
2022/10/21 12:34:16;;;;;;;2.00;0.73;;;16.80;94.90;;;;;;5058450;28;20329;-68
2022/10/21 12:36:49;;;;;;;3.05;0.70;;;17.10;94.40;;;;;;5074943;28;20417;-66
2022/10/21 12:39:32;;;;;;;5.18;0.73;;;17.20;93.70;;;;;;5078212;28;20085;-66
2022/10/21 12:42:27;;;;;;;4.25;0.88;;;17.20;93.10;;;;;;5075751;28;20065;-66
2022/10/21 12:44:53;;;;;;;0.90;0.50;;;17.20;93.40;;;;;;5041113;28;20055;-66
2022/10/21 12:47:43;;;;;;;3.67;0.70;;;17.20;93.10;;;;;;5061687;28;20025;-66
2022/10/21 12:50:30;;;;;;;3.08;0.80;;;17.40;93.30;;;;;;5057760;28;20074;-67
2022/10/21 12:53:13;;;;;;;1.25;0.55;;;17.50;91.30;;;;;;5033629;28;20040;-67
2022/10/21 12:55:40;;;;;;;2.00;0.60;;;17.60;91.30;;;;;;5074862;28;20031;-67
2022/10/21 12:58:40;;;;;;;3.83;0.60;;;17.60;89.60;;;;;;5077862;28;20024;-67
2022/10/21 13:01:26;;;;;;;1.92;0.60;;;17.70;89.90;;;;;;5075746;28;20286;-67
2022/10/21 13:03:54;;;;;;;4.90;0.60;;;17.60;90.20;;;;;;5062439;28;20025;-67